Time;durP1;ratioP1;P1;durP2;ratioP2;P2;SDS_P1;SDS_P2;PMS_P1;PMS_P2;Temp;Humidity;BMP_temperature;BMP_pressure;BME280_temperature;BME280_humidity;BME280_pressure;Samples;Min_cycle;Max_cycle;Signal;HPM_P1;HPM_P2
2023/02/04 00:00:01;;;;;;;1.60;0.30;;;4.00;99.90;3.80;100862.00;;;;4818366;28;107709;-76
2023/02/04 00:02:26;;;;;;;0.07;0.07;;;4.00;99.90;3.70;100870.00;;;;4819832;28;93915;-73
2023/02/04 00:04:52;;;;;;;0.10;0.10;;;4.70;99.90;3.70;100880.00;;;;4817745;28;123408;-73
2023/02/04 00:07:18;;;;;;;0.10;0.10;;;4.00;99.90;3.60;100887.00;;;;4816953;29;122488;-74
2023/02/04 00:09:48;;;;;;;0.47;0.27;;;3.90;99.90;3.60;100902.00;;;;4821034;28;92925;-74
2023/02/04 00:12:14;;;;;;;0.53;0.27;;;3.90;99.90;3.60;100896.00;;;;4819648;29;93049;-72
2023/02/04 00:14:40;;;;;;;1.23;0.33;;;3.80;99.90;3.60;100923.00;;;;4818811;28;112693;-71
2023/02/04 00:17:11;;;;;;;1.80;0.20;;;3.90;99.90;3.60;100919.00;;;;4815451;28;123421;-70
2023/02/04 00:19:40;;;;;;;0.17;0.17;;;3.80;99.90;3.60;100926.00;;;;4816629;28;93111;-71
2023/02/04 00:22:07;;;;;;;0.20;0.13;;;3.80;99.90;3.60;100931.00;;;;4817062;28;92105;-70
2023/02/04 00:24:37;;;;;;;0.20;0.20;;;3.90;99.90;3.60;100927.00;;;;4819884;28;93122;-69
2023/02/04 00:27:04;;;;;;;0.13;0.10;;;3.80;99.90;3.60;100947.00;;;;4819818;28;94415;-68
2023/02/04 00:29:30;;;;;;;0.33;0.33;;;3.90;99.90;3.60;100953.00;;;;4819951;28;95196;-69
2023/02/04 00:31:56;;;;;;;0.30;0.30;;;3.80;99.90;3.60;100949.00;;;;4819010;28;108894;-70
2023/02/04 00:34:22;;;;;;;1.90;0.63;;;3.80;99.90;3.60;100965.00;;;;4817294;28;93243;-69
2023/02/04 00:36:48;;;;;;;0.50;0.30;;;3.80;99.90;3.60;100970.00;;;;4829865;28;93324;-68
2023/02/04 00:39:14;;;;;;;1.13;0.40;;;3.80;99.90;3.60;100986.00;;;;4813666;28;94106;-67
2023/02/04 00:41:39;;;;;;;0.43;0.30;;;3.80;99.90;3.60;100976.00;;;;4814685;28;109018;-68
2023/02/04 00:44:05;;;;;;;0.83;0.47;;;3.80;99.90;3.60;100988.00;;;;4815842;28;107886;-68
2023/02/04 00:46:31;;;;;;;0.30;0.20;;;3.90;99.90;3.60;101003.00;;;;4814708;28;122296;-69
2023/02/04 00:48:56;;;;;;;0.40;0.40;;;3.80;99.90;3.60;100992.00;;;;4813686;28;108778;-69
2023/02/04 00:51:22;;;;;;;0.20;0.20;;;3.80;99.90;3.60;101009.00;;;;4813887;29;107499;-69
2023/02/04 00:53:48;;;;;;;1.60;0.67;;;3.80;99.90;3.60;101032.00;;;;4816081;28;122950;-68
2023/02/04 00:56:13;;;;;;;0.20;0.20;;;3.80;99.90;3.60;101027.00;;;;4814336;29;123922;-69
2023/02/04 00:58:39;;;;;;;0.40;0.27;;;3.70;99.90;3.60;101049.00;;;;4813466;28;111375;-70
2023/02/04 01:01:05;;;;;;;0.50;0.50;;;4.30;99.90;3.60;101052.00;;;;4816713;28;110046;-71
2023/02/04 01:03:30;;;;;;;0.60;0.37;;;3.80;99.90;3.50;101052.00;;;;4811683;28;122761;-70
2023/02/04 01:05:56;;;;;;;0.10;0.10;;;3.80;99.90;3.50;101050.00;;;;4811362;28;123336;-71
2023/02/04 01:08:21;;;;;;;0.10;0.10;;;4.40;99.90;3.50;101067.00;;;;4816542;28;110144;-70
2023/02/04 01:10:47;;;;;;;0.47;0.40;;;3.80;99.90;3.50;101081.00;;;;4816022;28;107813;-70
2023/02/04 01:13:13;;;;;;;0.53;0.33;;;3.70;99.90;3.50;101090.00;;;;4814543;28;115437;-70
2023/02/04 01:15:38;;;;;;;0.30;0.30;;;3.80;99.90;3.50;101104.00;;;;4814543;28;122740;-71
2023/02/04 01:18:04;;;;;;;0.30;0.20;;;3.80;99.90;3.50;101113.00;;;;4812215;28;93899;-71
2023/02/04 01:20:30;;;;;;;0.30;0.30;;;3.70;99.90;3.50;101108.00;;;;4809971;28;107987;-69
2023/02/04 01:22:55;;;;;;;0.30;0.30;;;3.70;99.90;3.50;101133.00;;;;4814253;28;110141;-70
2023/02/04 01:25:21;;;;;;;0.20;0.20;;;3.70;99.90;3.40;101149.00;;;;4813141;28;122873;-70
2023/02/04 01:27:47;;;;;;;0.30;0.30;;;3.70;99.90;3.40;101150.00;;;;4816819;28;92991;-70
2023/02/04 01:30:14;;;;;;;0.30;0.30;;;3.70;99.90;3.30;101158.00;;;;4814841;28;106979;-73
2023/02/04 01:32:40;;;;;;;2.47;0.37;;;3.60;99.90;3.30;101162.00;;;;4814174;28;105767;-72
2023/02/04 01:35:07;;;;;;;0.57;0.57;;;3.50;99.90;3.20;101167.00;;;;4814980;29;93806;-73
2023/02/04 01:37:32;;;;;;;0.77;0.57;;;3.50;99.90;3.20;101185.00;;;;4815065;28;94167;-73
2023/02/04 01:39:58;;;;;;;0.20;0.20;;;3.50;99.90;3.10;101186.00;;;;4815349;28;92986;-75
2023/02/04 01:42:24;;;;;;;0.20;0.20;;;3.50;99.90;3.10;101195.00;;;;4812775;28;122992;-73
2023/02/04 01:44:50;;;;;;;1.93;0.70;;;3.40;99.90;3.10;101202.00;;;;4813640;28;122666;-74
2023/02/04 01:47:16;;;;;;;0.80;0.67;;;2.60;99.90;3.10;101203.00;;;;4817020;28;93165;-73
2023/02/04 01:49:42;;;;;;;0.93;0.53;;;3.30;99.90;3.00;101210.00;;;;4816042;28;107000;-73
2023/02/04 01:52:10;;;;;;;0.40;0.40;;;3.30;99.90;3.10;101214.00;;;;4812564;28;123002;-75
2023/02/04 01:54:36;;;;;;;0.83;0.67;;;3.30;99.90;3.00;101236.00;;;;4816251;28;112007;-73
2023/02/04 01:57:03;;;;;;;1.57;1.17;;;2.90;99.90;3.00;101242.00;;;;4815441;28;111002;-75
2023/02/04 01:59:29;;;;;;;0.50;0.50;;;3.70;99.90;3.00;101267.00;;;;4813798;28;108668;-74
2023/02/04 02:01:54;;;;;;;0.50;0.50;;;3.30;99.90;3.00;101259.00;;;;4815051;28;121130;-71
2023/02/04 02:04:31;;;;;;;0.87;0.80;;;3.50;99.90;3.00;101263.00;;;;4828715;28;122587;-73
2023/02/04 02:07:02;;;;;;;0.70;0.60;;;3.30;99.90;3.00;101267.00;;;;4814460;29;103849;-72
2023/02/04 02:09:29;;;;;;;1.23;0.90;;;3.30;99.90;3.00;101278.00;;;;4827042;28;93197;-74
2023/02/04 02:11:55;;;;;;;0.93;0.53;;;3.20;99.90;3.00;101281.00;;;;4798966;29;121727;-71
2023/02/04 02:14:21;;;;;;;0.60;0.60;;;3.30;99.90;3.00;101294.00;;;;4815311;28;121364;-72
2023/02/04 02:16:47;;;;;;;1.53;0.70;;;3.30;99.90;3.00;101304.00;;;;4815407;28;92927;-72
2023/02/04 02:19:21;;;;;;;1.40;0.70;;;3.30;99.90;2.90;101304.00;;;;4815827;28;108769;-74
2023/02/04 02:22:01;;;;;;;0.43;0.40;;;3.20;99.90;2.90;101319.00;;;;4811965;29;95701;-74
2023/02/04 02:24:30;;;;;;;1.03;0.77;;;3.20;99.90;2.80;101346.00;;;;4817302;28;93192;-70
2023/02/04 02:26:59;;;;;;;0.67;0.53;;;3.30;99.90;2.80;101340.00;;;;4816191;28;92958;-71
2023/02/04 02:29:26;;;;;;;0.70;0.60;;;3.10;99.90;2.80;101346.00;;;;4813703;28;93007;-71
2023/02/04 02:31:53;;;;;;;0.83;0.80;;;3.10;99.90;2.90;101368.00;;;;4812407;28;115459;-72
2023/02/04 02:34:19;;;;;;;0.57;0.57;;;3.20;99.90;2.90;101374.00;;;;4812170;28;94070;-71
2023/02/04 02:36:44;;;;;;;0.90;0.53;;;3.20;99.90;2.90;101382.00;;;;4811019;28;109372;-71
2023/02/04 02:39:10;;;;;;;2.00;1.00;;;3.20;99.90;2.90;101396.00;;;;4795052;29;104494;-70
2023/02/04 02:41:36;;;;;;;1.17;0.70;;;3.80;99.90;2.90;101410.00;;;;4812539;28;121149;-71
2023/02/04 02:44:02;;;;;;;0.63;0.63;;;3.10;99.90;2.90;101418.00;;;;4814559;28;93801;-72
2023/02/04 02:46:28;;;;;;;0.80;0.80;;;3.80;99.90;2.90;101450.00;;;;4830247;28;93642;-70
2023/02/04 02:48:54;;;;;;;1.07;0.97;;;3.90;99.90;2.80;101444.00;;;;4812618;28;108402;-71
2023/02/04 02:51:19;;;;;;;1.27;0.90;;;3.10;99.90;2.70;101442.00;;;;4813526;28;121531;-70
2023/02/04 02:53:48;;;;;;;0.67;0.53;;;3.00;99.90;2.50;101444.00;;;;4813158;28;122506;-71
2023/02/04 02:56:14;;;;;;;0.80;0.57;;;2.90;99.90;2.40;101449.00;;;;4814560;28;93891;-71
2023/02/04 02:58:40;;;;;;;0.53;0.50;;;2.70;99.90;2.20;101453.00;;;;4814438;28;104087;-72
2023/02/04 03:01:08;;;;;;;1.07;0.60;;;2.60;99.90;2.10;101460.00;;;;4814592;28;93402;-71
2023/02/04 03:03:44;;;;;;;2.13;0.63;;;2.50;99.90;1.90;101469.00;;;;4810235;28;102549;-74
2023/02/04 03:06:19;;;;;;;0.90;0.67;;;2.30;99.90;1.80;101471.00;;;;4801334;29;93213;-72
2023/02/04 03:08:47;;;;;;;0.77;0.50;;;2.20;99.90;1.70;101475.00;;;;4824959;28;93323;-71
2023/02/04 03:11:13;;;;;;;1.27;0.77;;;2.10;99.90;1.60;101476.00;;;;4813597;29;93600;-71
2023/02/04 03:13:39;;;;;;;0.47;0.47;;;1.90;99.90;1.50;101500.00;;;;4814325;28;92351;-71
2023/02/04 03:16:06;;;;;;;0.57;0.57;;;2.00;99.90;1.50;101517.00;;;;4808669;28;109277;-69
2023/02/04 03:18:35;;;;;;;0.33;0.33;;;1.80;99.90;1.40;101527.00;;;;4814807;28;93115;-70
2023/02/04 03:21:03;;;;;;;2.07;0.40;;;1.80;99.90;1.40;101531.00;;;;4815356;28;95476;-71
2023/02/04 03:23:32;;;;;;;1.77;0.50;;;1.80;99.90;1.30;101552.00;;;;4814420;28;94453;-70
2023/02/04 03:25:57;;;;;;;0.30;0.30;;;1.70;99.90;1.30;101552.00;;;;4808198;29;94667;-70
2023/02/04 03:28:23;;;;;;;0.70;0.63;;;1.60;99.90;1.20;101570.00;;;;4812047;28;101868;-70
2023/02/04 03:30:54;;;;;;;0.37;0.30;;;1.50;99.90;1.20;101563.00;;;;4811620;28;108861;-70
2023/02/04 03:33:22;;;;;;;0.60;0.60;;;1.60;99.90;1.10;101570.00;;;;4816291;28;93085;-70
2023/02/04 03:35:48;;;;;;;0.53;0.40;;;1.40;99.90;1.20;101590.00;;;;4815340;29;92779;-70
2023/02/04 03:38:13;;;;;;;0.60;0.50;;;1.50;99.90;1.20;101600.00;;;;4810873;28;109146;-71
2023/02/04 03:40:39;;;;;;;0.73;0.67;;;1.50;99.90;1.30;101612.00;;;;4813315;28;109522;-71
2023/02/04 03:43:04;;;;;;;0.90;0.90;;;1.50;99.90;1.30;101614.00;;;;4810769;28;122366;-72
2023/02/04 03:45:30;;;;;;;2.40;0.60;;;1.70;99.90;1.40;101622.00;;;;4813464;28;111328;-71
2023/02/04 03:47:56;;;;;;;0.93;0.63;;;1.70;99.90;1.50;101632.00;;;;4812709;28;108337;-71
2023/02/04 03:50:21;;;;;;;0.30;0.30;;;1.80;99.90;1.50;101639.00;;;;4813749;28;121926;-71
2023/02/04 03:52:48;;;;;;;0.33;0.33;;;1.80;99.90;1.60;101648.00;;;;4812643;28;122464;-72
2023/02/04 03:55:14;;;;;;;0.53;0.40;;;1.90;99.90;1.60;101654.00;;;;4811156;28;92889;-70
2023/02/04 03:57:40;;;;;;;1.13;0.70;;;2.00;99.90;1.70;101660.00;;;;4813390;28;109809;-72
2023/02/04 04:00:07;;;;;;;0.83;0.47;;;1.90;99.90;1.70;101674.00;;;;4812197;28;124061;-69
2023/02/04 04:02:32;;;;;;;0.60;0.40;;;2.10;99.90;1.80;101679.00;;;;4813473;28;93821;-71
2023/02/04 04:04:58;;;;;;;0.33;0.30;;;2.00;99.90;1.80;101696.00;;;;4818335;28;110293;-71
2023/02/04 04:07:24;;;;;;;0.47;0.43;;;2.10;99.90;1.90;101684.00;;;;4810768;28;110946;-69
2023/02/04 04:09:49;;;;;;;0.30;0.23;;;2.20;99.90;1.90;101700.00;;;;4808295;28;124176;-70
2023/02/04 04:12:15;;;;;;;1.10;0.80;;;2.20;99.90;1.90;101715.00;;;;4814226;28;93932;-70
2023/02/04 04:14:41;;;;;;;0.50;0.50;;;2.20;99.90;1.90;101720.00;;;;4814784;28;110579;-69
2023/02/04 04:17:06;;;;;;;0.67;0.67;;;2.30;99.90;1.90;101728.00;;;;4815995;28;108286;-69
2023/02/04 04:19:32;;;;;;;1.77;0.90;;;1.90;99.90;2.00;101735.00;;;;4813391;28;110323;-69
2023/02/04 04:21:58;;;;;;;0.40;0.40;;;2.30;99.90;2.00;101733.00;;;;4813033;28;121617;-68
2023/02/04 04:24:23;;;;;;;0.67;0.50;;;2.30;99.90;2.00;101747.00;;;;4809494;29;109066;-69
2023/02/04 04:26:49;;;;;;;0.50;0.50;;;2.30;99.90;2.00;101754.00;;;;4817399;28;108062;-68
2023/02/04 04:29:14;;;;;;;0.63;0.63;;;2.30;99.90;2.00;101760.00;;;;4812499;29;121413;-68
2023/02/04 04:31:40;;;;;;;0.70;0.53;;;2.20;99.90;2.00;101765.00;;;;4813285;29;123623;-67
2023/02/04 04:34:06;;;;;;;1.57;0.33;;;2.30;99.90;2.00;101771.00;;;;4832908;28;102614;-66
2023/02/04 04:36:32;;;;;;;0.50;0.47;;;3.00;99.90;1.90;101765.00;;;;4814930;28;109530;-66
2023/02/04 04:38:58;;;;;;;0.43;0.43;;;2.20;99.90;1.80;101765.00;;;;4813755;28;93377;-66
2023/02/04 04:41:24;;;;;;;0.63;0.50;;;2.20;99.90;1.70;101781.00;;;;4816038;28;93796;-67
2023/02/04 04:43:49;;;;;;;0.40;0.30;;;2.10;99.90;1.60;101785.00;;;;4816656;28;109328;-67
2023/02/04 04:46:15;;;;;;;1.87;0.70;;;1.90;99.90;1.50;101788.00;;;;4815996;28;107709;-66
2023/02/04 04:48:41;;;;;;;0.50;0.40;;;1.80;99.90;1.40;101795.00;;;;4817219;28;123433;-65
2023/02/04 04:51:06;;;;;;;1.40;0.70;;;1.70;99.90;1.30;101801.00;;;;4814167;28;93670;-66
2023/02/04 04:53:32;;;;;;;0.30;0.30;;;1.70;99.90;1.20;101815.00;;;;4814586;28;99715;-66
2023/02/04 04:55:57;;;;;;;0.23;0.23;;;1.60;99.90;1.10;101828.00;;;;4811023;28;108950;-65
2023/02/04 04:58:23;;;;;;;0.67;0.60;;;1.50;99.90;1.10;101837.00;;;;4814322;28;123984;-65
2023/02/04 05:00:49;;;;;;;0.50;0.50;;;1.40;99.90;1.00;101848.00;;;;4814872;28;123330;-65
2023/02/04 05:03:14;;;;;;;1.17;0.47;;;1.40;99.90;1.00;101860.00;;;;4816305;28;109848;-65
2023/02/04 05:05:40;;;;;;;1.33;0.80;;;1.30;99.90;0.90;101855.00;;;;4812857;28;108988;-66
2023/02/04 05:08:12;;;;;;;0.73;0.50;;;1.20;99.90;0.90;101871.00;;;;4815647;28;122639;-66
2023/02/04 05:10:41;;;;;;;0.60;0.60;;;1.20;99.90;0.80;101877.00;;;;4816529;28;93167;-67
2023/02/04 05:13:07;;;;;;;1.97;0.87;;;1.20;99.90;0.80;101889.00;;;;4814494;28;92839;-67
2023/02/04 05:15:33;;;;;;;1.27;1.03;;;1.10;99.90;0.70;101884.00;;;;4814605;28;92348;-65
2023/02/04 05:17:59;;;;;;;1.23;0.70;;;1.10;99.90;0.60;101903.00;;;;4814237;28;115447;-65
2023/02/04 05:20:24;;;;;;;3.23;1.23;;;1.10;99.90;0.50;101901.00;;;;4812442;29;122773;-66
2023/02/04 05:22:50;;;;;;;1.53;0.80;;;0.90;99.90;0.50;101915.00;;;;4815317;28;93764;-66
2023/02/04 05:25:16;;;;;;;2.00;0.67;;;0.80;99.90;0.50;101920.00;;;;4817762;28;108994;-66
2023/02/04 05:27:43;;;;;;;0.50;0.50;;;0.80;99.90;0.40;101928.00;;;;4812020;28;122092;-66
2023/02/04 05:30:12;;;;;;;0.50;0.50;;;0.80;99.90;0.40;101925.00;;;;4814935;28;94264;-66
2023/02/04 05:32:38;;;;;;;0.67;0.57;;;1.90;99.90;0.30;101940.00;;;;4815309;28;101806;-66
2023/02/04 05:35:04;;;;;;;1.03;0.70;;;0.70;99.90;0.30;101943.00;;;;4815191;28;93404;-66
2023/02/04 05:37:31;;;;;;;0.53;0.53;;;0.70;99.90;0.20;101938.00;;;;4811796;28;96578;-65
2023/02/04 05:39:56;;;;;;;1.23;1.07;;;1.50;99.90;0.20;101943.00;;;;4814710;28;94032;-66
2023/02/04 05:42:22;;;;;;;0.83;0.77;;;0.60;99.90;0.20;101948.00;;;;4815457;28;100890;-65
2023/02/04 05:44:48;;;;;;;1.10;1.00;;;0.60;99.90;0.20;101955.00;;;;4816499;28;97433;-67
2023/02/04 05:47:14;;;;;;;0.67;0.67;;;0.50;99.90;0.10;101956.00;;;;4811079;28;123216;-66
2023/02/04 05:49:39;;;;;;;5.43;0.77;;;0.40;99.90;0.00;101956.00;;;;4813206;28;94824;-66
2023/02/04 05:52:05;;;;;;;1.13;1.00;;;0.50;99.90;0.00;101959.00;;;;4810050;28;109816;-66
2023/02/04 05:54:31;;;;;;;0.77;0.70;;;0.40;99.90;0.00;101969.00;;;;4815488;29;93051;-65
2023/02/04 05:56:57;;;;;;;3.90;0.93;;;0.40;99.90;0.00;101980.00;;;;4814483;28;122226;-65
2023/02/04 05:59:22;;;;;;;1.77;1.63;;;0.30;99.90;-0.10;101991.00;;;;4814068;28;121983;-65
2023/02/04 06:01:48;;;;;;;2.23;1.57;;;0.30;99.90;-0.10;102000.00;;;;4814388;28;110667;-65
2023/02/04 06:04:17;;;;;;;0.80;0.73;;;0.30;99.90;-0.20;101995.00;;;;4814672;28;92237;-66
2023/02/04 06:06:43;;;;;;;0.60;0.50;;;0.30;99.90;-0.20;102006.00;;;;4814988;29;93195;-66
2023/02/04 06:09:09;;;;;;;4.10;0.70;;;0.20;99.90;-0.20;102006.00;;;;4813700;28;122669;-66
2023/02/04 06:11:35;;;;;;;0.77;0.53;;;0.10;99.90;-0.30;102004.00;;;;4808927;29;93851;-66
2023/02/04 06:14:01;;;;;;;1.03;0.73;;;0.20;99.90;-0.30;102012.00;;;;4808932;28;97494;-66
2023/02/04 06:16:26;;;;;;;1.37;1.23;;;0.10;99.90;-0.30;102015.00;;;;4815849;28;93606;-68
2023/02/04 06:18:52;;;;;;;0.70;0.50;;;0.10;99.90;-0.40;102022.00;;;;4812860;29;121963;-67
2023/02/04 06:21:18;;;;;;;2.17;1.13;;;0.10;99.90;-0.40;102021.00;;;;4812035;28;109630;-66
2023/02/04 06:23:43;;;;;;;0.97;0.67;;;0.00;99.90;-0.40;102043.00;;;;4812368;28;107647;-66
2023/02/04 06:26:09;;;;;;;3.33;0.70;;;0.00;99.90;-0.40;102043.00;;;;4809673;28;122255;-66
2023/02/04 06:28:35;;;;;;;1.03;0.80;;;-0.10;99.90;-0.40;102044.00;;;;4812686;28;92884;-66
2023/02/04 06:31:00;;;;;;;0.40;0.40;;;-0.10;99.90;-0.50;102053.00;;;;4811869;28;109507;-66
2023/02/04 06:33:26;;;;;;;0.63;0.60;;;-0.10;99.90;-0.50;102054.00;;;;4807329;28;108785;-66
2023/02/04 06:35:51;;;;;;;1.07;0.97;;;-0.10;99.90;-0.50;102066.00;;;;4809968;28;104767;-66
2023/02/04 06:38:18;;;;;;;1.17;0.97;;;-0.10;99.90;-0.50;102067.00;;;;4809958;28;122641;-67
2023/02/04 06:40:44;;;;;;;3.30;2.23;;;0.00;99.90;-0.50;102076.00;;;;4809948;28;92876;-67
2023/02/04 06:43:09;;;;;;;1.40;1.23;;;-0.10;99.90;-0.50;102077.00;;;;4809237;28;93208;-66
2023/02/04 06:45:35;;;;;;;0.97;0.67;;;-0.20;99.90;-0.50;102092.00;;;;4807904;28;123053;-66
2023/02/04 06:48:01;;;;;;;3.90;1.57;;;0.70;99.90;-0.50;102091.00;;;;4810365;28;123682;-66
2023/02/04 06:50:26;;;;;;;2.30;1.10;;;-0.10;99.90;-0.50;102101.00;;;;4811794;28;110871;-66
2023/02/04 06:52:52;;;;;;;1.90;1.30;;;-0.10;99.90;-0.50;102100.00;;;;4811391;28;106814;-67
2023/02/04 06:55:18;;;;;;;1.40;0.90;;;-0.10;99.90;-0.50;102098.00;;;;4811243;28;121742;-66
2023/02/04 06:57:43;;;;;;;2.20;1.10;;;-0.10;99.90;-0.50;102108.00;;;;4809512;28;93178;-66
2023/02/04 07:00:11;;;;;;;2.53;1.50;;;0.00;99.90;-0.50;102121.00;;;;4809687;28;110683;-66
2023/02/04 07:02:38;;;;;;;4.83;1.53;;;-0.10;99.90;-0.50;102121.00;;;;4811492;28;97346;-67
2023/02/04 07:05:04;;;;;;;1.30;1.20;;;-0.10;99.90;-0.40;102111.00;;;;4810669;28;94355;-69
2023/02/04 07:07:30;;;;;;;1.50;1.03;;;0.00;99.90;-0.40;102107.00;;;;4808882;29;93279;-69
2023/02/04 07:09:56;;;;;;;2.00;1.40;;;0.00;99.90;-0.30;102114.00;;;;4816609;28;108971;-68
2023/02/04 07:12:21;;;;;;;3.73;1.63;;;0.00;99.90;-0.10;102122.00;;;;4809554;28;95192;-68
2023/02/04 07:14:47;;;;;;;2.40;1.50;;;0.20;99.90;0.00;102126.00;;;;4808180;29;122981;-68
2023/02/04 07:17:13;;;;;;;1.83;1.37;;;0.20;99.90;0.20;102121.00;;;;4806778;28;122811;-67
2023/02/04 07:19:38;;;;;;;1.43;1.33;;;1.10;99.90;0.30;102133.00;;;;4808142;28;110690;-66
2023/02/04 07:22:04;;;;;;;1.53;1.33;;;0.60;99.90;0.50;102136.00;;;;4808886;29;107390;-67
2023/02/04 07:24:30;;;;;;;2.57;1.37;;;0.80;99.90;0.70;102146.00;;;;4808995;29;124103;-66
2023/02/04 07:26:56;;;;;;;1.80;1.33;;;0.90;99.90;0.90;102136.00;;;;4812371;28;98409;-67
2023/02/04 07:29:22;;;;;;;2.47;1.00;;;1.20;99.90;1.10;102144.00;;;;4808265;28;92881;-68
2023/02/04 07:31:50;;;;;;;2.13;1.73;;;1.50;99.90;1.30;102146.00;;;;4812736;29;92914;-68
2023/02/04 07:34:16;;;;;;;3.20;1.43;;;1.60;99.90;1.60;102145.00;;;;4808321;29;94006;-68
2023/02/04 07:36:42;;;;;;;0.73;0.73;;;1.80;99.90;1.80;102153.00;;;;4820219;28;122214;-68
2023/02/04 07:39:08;;;;;;;3.00;1.73;;;2.00;99.90;2.00;102144.00;;;;4811423;28;93458;-68
2023/02/04 07:41:34;;;;;;;1.13;0.87;;;2.20;99.90;2.10;102147.00;;;;4813780;29;95155;-68
2023/02/04 07:44:00;;;;;;;0.87;0.70;;;2.40;99.90;2.30;102148.00;;;;4813604;28;99287;-68
2023/02/04 07:46:26;;;;;;;2.27;1.37;;;2.50;99.90;2.40;102151.00;;;;4812280;29;121845;-68
2023/02/04 07:48:51;;;;;;;2.30;1.07;;;2.70;99.90;2.70;102165.00;;;;4812432;28;94134;-68
2023/02/04 07:51:17;;;;;;;1.23;1.00;;;2.90;99.90;2.90;102162.00;;;;4812334;28;92784;-68
2023/02/04 07:53:43;;;;;;;0.70;0.60;;;3.10;99.90;3.20;102167.00;;;;4814659;28;123711;-68
2023/02/04 07:56:08;;;;;;;4.10;1.23;;;3.50;99.90;3.40;102167.00;;;;4811607;28;121739;-68
2023/02/04 07:58:34;;;;;;;1.83;0.90;;;3.60;99.90;3.60;102164.00;;;;4811212;28;93009;-69
2023/02/04 08:01:00;;;;;;;2.43;1.33;;;3.80;99.90;3.90;102176.00;;;;4811808;28;92987;-67
2023/02/04 08:03:26;;;;;;;2.33;0.97;;;4.10;99.90;4.00;102181.00;;;;4809309;28;93660;-68
2023/02/04 08:05:52;;;;;;;2.00;0.87;;;4.30;99.90;4.10;102188.00;;;;4809000;28;92647;-67
2023/02/04 08:08:18;;;;;;;3.20;0.77;;;4.40;99.90;4.20;102189.00;;;;4813647;28;94237;-67
2023/02/04 08:10:43;;;;;;;0.87;0.67;;;4.40;99.90;4.30;102193.00;;;;4814442;28;102170;-67
2023/02/04 08:13:09;;;;;;;1.60;0.57;;;4.50;99.90;4.40;102200.00;;;;4808131;28;123080;-67
2023/02/04 08:15:35;;;;;;;1.37;0.87;;;4.70;99.90;4.50;102207.00;;;;4812259;28;124797;-68
2023/02/04 08:18:00;;;;;;;0.80;0.77;;;4.70;99.90;4.60;102222.00;;;;4812385;28;104192;-67
2023/02/04 08:20:26;;;;;;;3.47;0.57;;;4.80;99.90;4.70;102221.00;;;;4816613;28;92781;-67
2023/02/04 08:22:52;;;;;;;1.60;0.87;;;4.90;99.90;4.70;102221.00;;;;4812009;29;94716;-68
2023/02/04 08:25:17;;;;;;;0.80;0.70;;;4.90;99.90;4.70;102230.00;;;;4810599;29;121912;-66
2023/02/04 08:27:43;;;;;;;3.47;0.90;;;5.00;99.90;4.70;102241.00;;;;4810163;28;111743;-67
2023/02/04 08:30:10;;;;;;;5.53;1.67;;;5.30;99.90;4.80;102236.00;;;;4810425;28;105170;-66
2023/02/04 08:32:36;;;;;;;3.27;1.93;;;5.00;99.90;5.00;102241.00;;;;4810217;28;115326;-68
2023/02/04 08:35:01;;;;;;;1.27;1.10;;;5.10;99.90;5.30;102245.00;;;;4811359;28;104025;-67
2023/02/04 08:37:27;;;;;;;2.80;1.90;;;5.30;99.90;5.60;102265.00;;;;4811282;29;97518;-67
2023/02/04 08:39:53;;;;;;;2.03;0.97;;;5.60;99.90;5.80;102265.00;;;;4813659;28;108838;-67
2023/02/04 08:42:19;;;;;;;1.33;0.80;;;6.00;99.90;6.00;102274.00;;;;4811926;28;93765;-68
2023/02/04 08:44:44;;;;;;;1.03;0.73;;;6.60;99.90;6.10;102271.00;;;;4811403;28;93912;-68
2023/02/04 08:47:11;;;;;;;2.43;1.13;;;6.30;99.90;6.30;102277.00;;;;4811576;29;110376;-68
2023/02/04 08:49:36;;;;;;;2.33;0.83;;;7.00;99.90;6.50;102285.00;;;;4814224;28;92983;-68
2023/02/04 08:52:04;;;;;;;2.37;1.47;;;7.10;99.90;6.80;102294.00;;;;4811933;28;122864;-68
2023/02/04 08:54:31;;;;;;;1.10;0.87;;;6.90;99.90;7.10;102291.00;;;;4811578;28;93445;-68
2023/02/04 08:56:56;;;;;;;2.63;0.93;;;7.20;99.90;7.30;102303.00;;;;4813771;28;92954;-68
2023/02/04 08:59:23;;;;;;;2.57;1.40;;;7.40;99.90;7.50;102297.00;;;;4811059;28;95807;-68
2023/02/04 09:01:51;;;;;;;2.23;0.83;;;7.60;99.90;7.60;102300.00;;;;4812372;28;94178;-69
2023/02/04 09:04:21;;;;;;;4.03;0.90;;;7.90;99.90;7.50;102305.00;;;;4812685;28;93721;-68
2023/02/04 09:06:48;;;;;;;2.13;1.50;;;7.70;99.90;7.50;102302.00;;;;4810022;28;93339;-67
2023/02/04 09:09:14;;;;;;;1.23;0.97;;;7.70;99.90;7.70;102311.00;;;;4810026;28;93148;-68
2023/02/04 09:11:41;;;;;;;2.07;1.53;;;8.10;99.90;8.00;102329.00;;;;4811362;28;121020;-66
2023/02/04 09:14:06;;;;;;;0.80;0.80;;;8.10;99.90;8.30;102323.00;;;;4810692;28;94194;-67
2023/02/04 09:16:32;;;;;;;3.33;0.77;;;8.30;99.90;8.40;102327.00;;;;4815211;28;92960;-68
2023/02/04 09:18:58;;;;;;;1.43;0.77;;;8.50;99.90;8.60;102332.00;;;;4811838;28;108530;-69
2023/02/04 09:21:24;;;;;;;0.70;0.70;;;8.60;99.90;8.80;102338.00;;;;4810706;28;93146;-68
2023/02/04 09:23:50;;;;;;;0.87;0.70;;;8.90;99.90;9.00;102334.00;;;;4808611;28;99386;-68
2023/02/04 09:26:16;;;;;;;2.27;1.03;;;9.00;99.90;9.10;102339.00;;;;4810839;28;109205;-69
2023/02/04 09:28:42;;;;;;;0.43;0.33;;;9.10;99.90;9.20;102340.00;;;;4813821;28;108355;-68
2023/02/04 09:31:08;;;;;;;1.63;0.73;;;9.20;99.90;9.20;102356.00;;;;4811386;28;92967;-68
2023/02/04 09:33:34;;;;;;;0.50;0.50;;;9.30;99.90;9.00;102360.00;;;;4812279;28;92916;-68
2023/02/04 09:36:00;;;;;;;0.83;0.70;;;9.30;99.90;8.70;102366.00;;;;4812089;29;93254;-68
2023/02/04 09:38:26;;;;;;;1.90;1.00;;;9.00;99.90;8.70;102355.00;;;;4826342;28;93495;-70
2023/02/04 09:41:00;;;;;;;0.97;0.30;;;8.60;99.90;8.90;102364.00;;;;4813188;28;93635;-67
2023/02/04 09:43:31;;;;;;;2.33;1.03;;;8.90;99.90;9.20;102365.00;;;;4813575;28;97357;-68
2023/02/04 09:45:57;;;;;;;1.93;1.00;;;9.20;99.90;9.40;102365.00;;;;4814957;28;93004;-68
2023/02/04 09:48:24;;;;;;;0.83;0.70;;;9.40;99.90;9.60;102377.00;;;;4808841;28;106967;-68
2023/02/04 09:50:51;;;;;;;0.57;0.50;;;9.60;99.90;9.90;102383.00;;;;4812290;29;123067;-67
2023/02/04 09:53:22;;;;;;;0.77;0.63;;;9.80;99.90;10.10;102388.00;;;;4814919;28;93993;-68
2023/02/04 09:55:50;;;;;;;0.43;0.43;;;10.00;99.90;10.20;102385.00;;;;4811891;29;93186;-68
2023/02/04 09:58:19;;;;;;;1.03;0.70;;;10.20;99.90;10.30;102390.00;;;;4811352;28;92908;-68
2023/02/04 10:00:51;;;;;;;1.20;0.73;;;10.40;99.90;10.60;102395.00;;;;4812522;28;92940;-68
2023/02/04 10:03:21;;;;;;;0.23;0.23;;;10.50;99.90;10.80;102395.00;;;;4804349;29;102781;-68
2023/02/04 10:05:47;;;;;;;0.73;0.50;;;10.70;99.90;10.80;102399.00;;;;4806723;28;92825;-68
2023/02/04 10:08:16;;;;;;;0.83;0.40;;;10.80;99.90;10.80;102412.00;;;;4812748;28;92560;-68
2023/02/04 10:10:43;;;;;;;4.47;0.67;;;10.80;99.90;10.90;102410.00;;;;4811669;28;93304;-68
2023/02/04 10:13:19;;;;;;;0.67;0.60;;;10.90;99.90;11.00;102405.00;;;;4811776;28;93594;-68
2023/02/04 10:15:46;;;;;;;0.67;0.53;;;11.00;99.90;11.20;102410.00;;;;4807404;28;93812;-67
2023/02/04 10:18:28;;;;;;;0.73;0.70;;;11.10;99.90;11.50;102408.00;;;;4810627;28;93527;-67
2023/02/04 10:21:20;;;;;;;1.47;0.57;;;11.40;99.90;11.60;102414.00;;;;4811236;28;93570;-68
2023/02/04 10:23:50;;;;;;;0.40;0.30;;;11.60;99.90;11.50;102406.00;;;;4795984;29;94315;-67
2023/02/04 10:26:24;;;;;;;0.70;0.70;;;11.50;98.50;11.50;102410.00;;;;4811037;28;93153;-68
2023/02/04 10:28:49;;;;;;;0.40;0.40;;;11.50;98.00;11.40;102410.00;;;;4811122;28;100499;-64
2023/02/04 10:31:28;;;;;;;1.30;0.90;;;11.50;97.70;11.60;102421.00;;;;4811933;28;121686;-68
2023/02/04 10:34:37;;;;;;;0.30;0.30;;;11.60;99.00;11.80;102416.00;;;;4811000;28;93156;-67
2023/02/04 10:37:18;;;;;;;2.33;0.60;;;11.80;97.80;12.00;102424.00;;;;4818509;28;93097;-67
2023/02/04 10:39:44;;;;;;;1.60;0.70;;;11.90;97.20;12.20;102425.00;;;;4811605;28;93129;-67
2023/02/04 10:42:29;;;;;;;1.30;0.60;;;12.10;97.40;12.50;102427.00;;;;4808944;28;117816;-69
2023/02/04 10:44:55;;;;;;;0.93;0.57;;;12.40;96.50;12.60;102437.00;;;;4795013;29;95805;-68
2023/02/04 10:47:24;;;;;;;1.10;0.60;;;12.60;95.80;12.70;102428.00;;;;4809512;28;103071;-69
2023/02/04 10:50:07;;;;;;;0.40;0.30;;;12.60;95.60;12.40;102430.00;;;;4809346;28;94039;-69
2023/02/04 10:52:37;;;;;;;0.30;0.30;;;12.50;93.40;12.20;102435.00;;;;4810352;28;93066;-69